createdAt,value
2023-01-28T00:01:17.939Z,103013.50
2023-01-28T00:03:48.042Z,103015.38
2023-01-28T00:06:19.030Z,103014.47
2023-01-28T00:08:51.503Z,103013.50
2023-01-28T00:11:22.611Z,103015.22
2023-01-28T00:13:55.229Z,103013.41
2023-01-28T00:16:27.459Z,103004.66
2023-01-28T00:18:57.743Z,103000.34
2023-01-28T00:21:27.579Z,102996.06
2023-01-28T00:24:00.506Z,103004.94
2023-01-28T00:26:30.719Z,102998.03
2023-01-28T00:29:00.553Z,102995.41
2023-01-28T00:31:31.230Z,102989.41
2023-01-28T00:34:01.214Z,102988.66
2023-01-28T00:36:31.016Z,102992.19
2023-01-28T00:39:03.453Z,102991.25
2023-01-28T00:41:33.348Z,102992.44
2023-01-28T00:44:03.166Z,102978.50
2023-01-28T00:46:33.008Z,102984.63
2023-01-28T00:49:02.919Z,102987.13
2023-01-28T00:51:32.727Z,102982.22
2023-01-28T00:54:05.308Z,102983.81
2023-01-28T00:56:37.072Z,102986.25
2023-01-28T00:59:07.090Z,102984.44
2023-01-28T01:01:37.293Z,102988.09
2023-01-28T01:04:07.612Z,102989.94
2023-01-28T01:06:39.302Z,102991.75
2023-01-28T01:09:14.713Z,102993.59
2023-01-28T01:11:44.556Z,102995.41
2023-01-28T01:14:14.515Z,102992.81
2023-01-28T01:16:44.299Z,102993.88
2023-01-28T01:19:14.091Z,102995.69
2023-01-28T01:21:43.899Z,102994.16
2023-01-28T01:24:16.300Z,102999.34
2023-01-28T01:26:46.309Z,102999.34
2023-01-28T01:29:16.082Z,102998.56
2023-01-28T01:31:46.302Z,103002.13
2023-01-28T01:34:16.110Z,103005.63
2023-01-28T01:36:46.701Z,103004.84
2023-01-28T01:39:19.278Z,103004.09
2023-01-28T01:41:49.122Z,103004.09
2023-01-28T01:44:48.824Z,103002.25
2023-01-28T01:47:20.987Z,103000.44
2023-01-28T01:49:50.896Z,103006.53
2023-01-28T01:52:23.989Z,103015.16
2023-01-28T01:55:00.183Z,103013.47
2023-01-28T01:57:34.927Z,103003.94
2023-01-28T02:00:08.797Z,102997.81
2023-01-28T02:02:42.961Z,103009.16
2023-01-28T02:05:15.108Z,103010.84
2023-01-28T02:07:47.645Z,103009.16
2023-01-28T02:10:20.952Z,103012.66
2023-01-28T02:12:56.330Z,103000.53
2023-01-28T02:15:29.877Z,102997.81
2023-01-28T02:18:00.361Z,102996.75
2023-01-28T02:20:44.987Z,102996.59
2023-01-28T02:23:46.151Z,102994.00
2023-01-28T02:26:42.890Z,102993.88
2023-01-28T02:29:21.564Z,102988.50
2023-01-28T02:31:57.162Z,102987.59
2023-01-28T02:34:38.206Z,102995.56
2023-01-28T02:37:15.423Z,102988.38
2023-01-28T02:39:50.789Z,102995.16
2023-01-28T02:42:24.542Z,102998.38
2023-01-28T02:44:56.954Z,102994.09
2023-01-28T02:47:39.365Z,102990.41
2023-01-28T02:50:12.214Z,102998.22
2023-01-28T02:53:06.809Z,102993.03
2023-01-28T02:55:43.039Z,102993.03
2023-01-28T02:58:22.094Z,102989.50
2023-01-28T03:01:04.759Z,102985.84
2023-01-28T03:03:40.209Z,102983.44
2023-01-28T03:06:14.834Z,102986.69
2023-01-28T03:09:01.712Z,102976.25
2023-01-28T03:11:46.598Z,102975.34
2023-01-28T03:14:30.189Z,102983.94
2023-01-28T03:17:16.515Z,102989.44
2023-01-28T03:19:58.945Z,102985.13
2023-01-28T03:22:44.466Z,102994.00
2023-01-28T03:25:30.426Z,102993.22
2023-01-28T03:28:17.911Z,102997.53
2023-01-28T03:31:03.940Z,102998.44
2023-01-28T03:33:50.892Z,102991.56
2023-01-28T03:36:33.293Z,103007.31
2023-01-28T03:39:03.064Z,103003.66
2023-01-28T03:41:32.918Z,103003.66
2023-01-28T03:44:15.093Z,102999.22
2023-01-28T03:46:44.828Z,102999.38
2023-01-28T03:49:18.106Z,103002.09
2023-01-28T03:51:48.128Z,102996.13
2023-01-28T03:54:18.003Z,102997.06
2023-01-28T03:56:48.638Z,102992.75
2023-01-28T03:59:18.440Z,102996.13
2023-01-28T04:01:50.793Z,102996.41
2023-01-28T04:04:25.728Z,102990.41
2023-01-28T04:06:56.217Z,102985.19
2023-01-28T04:09:26.365Z,102983.50
2023-01-28T04:11:56.173Z,102993.94
2023-01-28T04:14:25.927Z,102990.41
2023-01-28T04:16:56.165Z,102983.22
2023-01-28T04:19:29.230Z,102988.16
2023-01-28T04:21:59.015Z,102988.66
2023-01-28T04:24:28.840Z,102988.53
2023-01-28T04:26:58.653Z,102986.69
2023-01-28T04:29:28.460Z,102982.41
2023-01-28T04:31:58.234Z,102981.47
2023-01-28T04:34:30.736Z,102982.25
2023-01-28T04:37:00.471Z,102985.59
2023-01-28T04:39:30.230Z,102982.09
2023-01-28T04:41:59.963Z,102969.84
2023-01-28T04:44:29.708Z,102982.09
2023-01-28T04:46:59.489Z,102990.69
2023-01-28T04:49:32.872Z,102988.22
2023-01-28T04:52:02.625Z,102986.41
2023-01-28T04:54:32.348Z,102967.72
2023-01-28T04:57:02.133Z,102981.53
2023-01-28T04:59:31.880Z,102975.28
2023-01-28T05:02:01.664Z,102979.56
2023-01-28T05:04:34.036Z,102975.13
2023-01-28T05:07:03.803Z,102968.88
2023-01-28T05:09:33.568Z,102969.50
2023-01-28T05:12:03.333Z,102967.81
2023-01-28T05:14:33.110Z,102958.94
2023-01-28T05:17:03.088Z,102958.66
2023-01-28T05:19:35.528Z,102964.50
2023-01-28T05:22:05.284Z,102974.00
2023-01-28T05:24:35.071Z,102972.16
2023-01-28T05:27:04.845Z,102973.69
2023-01-28T05:29:34.619Z,102974.47
2023-01-28T05:32:04.453Z,102979.84
2023-01-28T05:34:36.822Z,102964.97
2023-01-28T05:37:06.548Z,102965.75
2023-01-28T05:39:36.295Z,102950.75
2023-01-28T05:42:06.258Z,102961.19
2023-01-28T05:44:36.503Z,102960.28
2023-01-28T05:47:06.365Z,102955.81
2023-01-28T05:49:38.726Z,102957.50
2023-01-28T05:52:08.508Z,102957.78
2023-01-28T05:54:38.276Z,102951.81
2023-01-28T05:57:08.069Z,102952.84
2023-01-28T05:59:37.843Z,102959.13
2023-01-28T06:02:07.589Z,102957.31
2023-01-28T06:04:40.175Z,102959.00
2023-01-28T06:07:09.898Z,102955.34
2023-01-28T06:09:39.641Z,102963.00
2023-01-28T06:12:09.970Z,102972.50
2023-01-28T06:14:39.709Z,102971.44
2023-01-28T06:17:09.485Z,102967.94
2023-01-28T06:19:41.841Z,102978.34
2023-01-28T06:22:11.652Z,102978.34
2023-01-28T06:24:41.462Z,102966.06
2023-01-28T06:27:11.325Z,102974.69
2023-01-28T06:29:41.173Z,102982.97
2023-01-28T06:32:11.239Z,102979.16
2023-01-28T06:34:43.857Z,102977.81
2023-01-28T06:37:16.183Z,102982.13
2023-01-28T06:39:45.920Z,102985.19
2023-01-28T06:42:15.792Z,102981.53
2023-01-28T06:44:45.558Z,102980.34
2023-01-28T06:47:15.680Z,102988.00
2023-01-28T06:49:48.029Z,102997.22
2023-01-28T06:52:17.752Z,102993.53
2023-01-28T06:54:47.503Z,102992.47
2023-01-28T06:57:17.326Z,102986.19
2023-01-28T06:59:47.102Z,102993.88
2023-01-28T07:02:16.958Z,102991.13
2023-01-28T07:04:49.341Z,102975.38
2023-01-28T07:07:19.116Z,102981.22
2023-01-28T07:09:48.844Z,102982.75
2023-01-28T07:12:18.624Z,102984.28
2023-01-28T07:14:48.517Z,102984.91
2023-01-28T07:17:18.343Z,103000.22
2023-01-28T07:19:50.753Z,102993.03
2023-01-28T07:22:20.496Z,102985.84
2023-01-28T07:24:50.310Z,102987.38
2023-01-28T07:27:20.089Z,102997.63
2023-01-28T07:29:49.816Z,103004.53
2023-01-28T07:32:19.581Z,102996.72
2023-01-28T07:34:51.975Z,102998.59
2023-01-28T07:37:21.864Z,102996.72
2023-01-28T07:39:52.348Z,102999.34
2023-01-28T07:42:22.151Z,103007.91
2023-01-28T07:44:52.448Z,103014.03
2023-01-28T07:47:22.375Z,103019.06
2023-01-28T07:49:54.855Z,103020.94
2023-01-28T07:52:24.603Z,103026.13
2023-01-28T07:54:54.495Z,103029.81
2023-01-28T07:57:26.170Z,103022.13
2023-01-28T07:59:55.938Z,103033.44
2023-01-28T08:02:25.691Z,103030.72
2023-01-28T08:04:59.494Z,103040.22
2023-01-28T08:07:30.475Z,103040.22
2023-01-28T08:10:00.246Z,103034.06
2023-01-28T08:12:30.016Z,103041.88
2023-01-28T08:14:59.970Z,103050.63
2023-01-28T08:17:30.841Z,103053.66
2023-01-28T08:20:03.241Z,103058.56
2023-01-28T08:22:33.029Z,103059.59
2023-01-28T08:25:02.825Z,103048.44
2023-01-28T08:27:32.625Z,103064.97
2023-01-28T08:30:02.410Z,103066.03
2023-01-28T08:32:32.583Z,103074.59
2023-01-28T08:35:05.367Z,103069.56
2023-01-28T08:37:35.105Z,103070.34
2023-01-28T08:40:04.909Z,103069.38
2023-01-28T08:42:34.695Z,103063.72
2023-01-28T08:45:04.455Z,103065.06
2023-01-28T08:47:34.234Z,103067.50
2023-01-28T08:50:07.392Z,103080.19
2023-01-28T08:52:37.161Z,103064.09
2023-01-28T08:55:07.504Z,103067.56
2023-01-28T08:57:37.290Z,103066.47
2023-01-28T09:00:10.868Z,103067.19
2023-01-28T09:02:40.921Z,103073.56
2023-01-28T09:05:13.662Z,103073.50
2023-01-28T09:07:43.424Z,103076.34
2023-01-28T09:10:15.100Z,103074.63
2023-01-28T09:12:45.179Z,103076.88
2023-01-28T09:15:15.652Z,103080.03
2023-01-28T09:17:45.396Z,103073.56
2023-01-28T09:20:18.137Z,103075.06
2023-01-28T09:22:47.992Z,103075.47
2023-01-28T09:25:17.889Z,103065.31
2023-01-28T09:27:47.704Z,103078.34
2023-01-28T09:30:18.590Z,103069.19
2023-01-28T09:32:48.578Z,103075.97
2023-01-28T09:35:21.374Z,103079.06
2023-01-28T09:37:52.299Z,103079.72
2023-01-28T09:40:30.156Z,103074.19
2023-01-28T09:43:11.001Z,103074.69
2023-01-28T09:45:45.453Z,103074.53
2023-01-28T09:48:21.750Z,103079.63
2023-01-28T09:50:56.538Z,103082.25
2023-01-28T09:53:31.409Z,103079.75
2023-01-28T09:56:04.742Z,103084.97
2023-01-28T09:58:35.103Z,103077.03
2023-01-28T10:01:17.703Z,103066.44
2023-01-28T10:03:57.777Z,103048.97
2023-01-28T10:06:44.936Z,103047.56
2023-01-28T10:09:33.571Z,103038.19
2023-01-28T10:12:25.507Z,103033.25
2023-01-28T10:15:13.419Z,103016.97
2023-01-28T10:17:46.743Z,103010.06
2023-01-28T10:20:26.050Z,103007.47
2023-01-28T10:23:07.633Z,103008.53
2023-01-28T10:25:39.411Z,102999.00
2023-01-28T10:28:18.940Z,102997.72
2023-01-28T10:30:50.404Z,102992.66
2023-01-28T10:33:25.100Z,102991.88
2023-01-28T10:35:54.945Z,102976.53
2023-01-28T10:38:30.127Z,102982.13
2023-01-28T10:41:03.323Z,102991.00
2023-01-28T10:43:35.849Z,102980.22
2023-01-28T10:46:10.420Z,102982.59
2023-01-28T10:48:46.350Z,102977.66
2023-01-28T10:51:16.319Z,102983.81
2023-01-28T10:53:49.448Z,102984.06
2023-01-28T10:56:26.415Z,102991.41
2023-01-28T10:59:03.474Z,102996.09
2023-01-28T11:01:47.986Z,103002.53
2023-01-28T11:04:25.615Z,103007.75
2023-01-28T11:06:57.025Z,103011.38
2023-01-28T11:09:33.141Z,103018.47
2023-01-28T11:12:14.573Z,103010.63
2023-01-28T11:14:53.464Z,103019.38
2023-01-28T11:17:25.924Z,103007.09
2023-01-28T11:19:57.141Z,103010.91
2023-01-28T11:22:34.765Z,103003.22
2023-01-28T11:25:18.900Z,102993.16
2023-01-28T11:27:51.888Z,102989.78
2023-01-28T11:30:26.382Z,102994.38
2023-01-28T11:33:20.500Z,102994.63
2023-01-28T11:35:57.280Z,102979.13
2023-01-28T11:38:29.134Z,102969.06
2023-01-28T11:41:02.771Z,102970.25
2023-01-28T11:43:34.388Z,102967.13
2023-01-28T11:46:20.665Z,102964.00
2023-01-28T11:49:02.050Z,102962.44
2023-01-28T11:51:43.454Z,102944.94
2023-01-28T11:54:25.840Z,102959.19
2023-01-28T11:57:21.269Z,102947.94
2023-01-28T12:00:04.003Z,102945.31
2023-01-28T12:02:48.845Z,102941.81
2023-01-28T12:05:31.688Z,102939.19
2023-01-28T12:08:10.589Z,102942.84
2023-01-28T12:10:50.207Z,102938.03
2023-01-28T12:13:48.945Z,102932.41
2023-01-28T12:16:45.551Z,102922.41
2023-01-28T12:19:33.268Z,102905.28
2023-01-28T12:22:29.859Z,102917.84
2023-01-28T12:25:18.390Z,102922.66
2023-01-28T12:27:55.304Z,102921.25
2023-01-28T12:30:40.707Z,102932.72
2023-01-28T12:33:43.794Z,102929.59
2023-01-28T12:36:27.810Z,102936.00
2023-01-28T12:39:09.502Z,102943.31
2023-01-28T12:41:43.579Z,102942.00
2023-01-28T12:44:17.464Z,102935.34
2023-01-28T12:46:55.933Z,102943.19
2023-01-28T12:49:32.619Z,102934.41
2023-01-28T12:52:08.067Z,102937.16
2023-01-28T12:54:44.184Z,102933.88
2023-01-28T12:57:30.151Z,102927.09
2023-01-28T13:00:09.786Z,102918.44
2023-01-28T13:02:45.896Z,102914.41
2023-01-28T13:05:20.214Z,102903.31
2023-01-28T13:07:55.138Z,102900.78
2023-01-28T13:10:30.166Z,102895.56
2023-01-28T13:13:00.824Z,102900.13
2023-01-28T13:15:31.364Z,102919.47
2023-01-28T13:18:05.444Z,102905.88
2023-01-28T13:20:55.693Z,102905.22
2023-01-28T13:23:28.062Z,102897.25
2023-01-28T13:25:58.585Z,102896.34
2023-01-28T13:28:31.487Z,102895.28
2023-01-28T13:31:07.034Z,102895.44
2023-01-28T13:33:41.824Z,102889.28
2023-01-28T13:36:26.844Z,102895.53
2023-01-28T13:39:08.109Z,102895.81
2023-01-28T13:41:43.114Z,102901.16
2023-01-28T13:44:24.407Z,102891.88
2023-01-28T13:46:54.992Z,102883.22
2023-01-28T13:49:35.762Z,102878.13
2023-01-28T13:52:16.323Z,102886.91
2023-01-28T13:54:52.166Z,102885.03
2023-01-28T13:58:10.672Z,102883.38
2023-01-28T14:00:49.346Z,102898.94
2023-01-28T14:03:54.265Z,102893.69
2023-01-28T14:06:51.253Z,102902.34
2023-01-28T14:09:54.816Z,102915.28
2023-01-28T14:12:41.180Z,102925.59
2023-01-28T14:15:28.281Z,102917.50
2023-01-28T14:18:00.156Z,102912.03
2023-01-28T14:20:37.977Z,102924.28
2023-01-28T14:23:22.298Z,102920.13
2023-01-28T14:26:05.518Z,102916.59
2023-01-28T14:28:47.268Z,102910.47
2023-01-28T14:31:21.485Z,102908.59
2023-01-28T14:33:51.527Z,102902.47
2023-01-28T14:36:21.412Z,102913.84
2023-01-28T14:38:53.961Z,102910.31
2023-01-28T14:41:28.066Z,102915.44
2023-01-28T14:43:58.881Z,102919.88
2023-01-28T14:46:38.823Z,102913.84
2023-01-28T14:49:21.960Z,102906.78
2023-01-28T14:52:29.330Z,102912.03
2023-01-28T14:55:09.063Z,102901.56
2023-01-28T14:57:49.977Z,102910.22
2023-01-28T15:00:22.677Z,102918.16
2023-01-28T15:02:52.836Z,102926.16
2023-01-28T15:05:25.385Z,102909.56
2023-01-28T15:07:55.950Z,102912.16
2023-01-28T15:10:32.180Z,102912.03
2023-01-28T15:13:12.786Z,102915.44
2023-01-28T15:15:44.045Z,102908.50
2023-01-28T15:18:19.619Z,102910.88
2023-01-28T15:20:50.642Z,102915.31
2023-01-28T15:23:26.031Z,102919.72
2023-01-28T15:25:58.927Z,102910.22
2023-01-28T15:28:32.901Z,102895.44
2023-01-28T15:31:03.207Z,102892.69
2023-01-28T15:33:33.221Z,102890.88
2023-01-28T15:36:03.406Z,102886.28
2023-01-28T15:38:33.271Z,102892.28
2023-01-28T15:41:08.526Z,102891.13
2023-01-28T15:43:41.607Z,102887.47
2023-01-28T15:46:15.251Z,102875.97
2023-01-28T15:48:48.566Z,102871.66
2023-01-28T15:51:26.337Z,102869.59
2023-01-28T15:54:01.721Z,102873.63
2023-01-28T15:56:34.487Z,102872.34
2023-01-28T15:59:21.336Z,102872.88
2023-01-28T16:01:51.286Z,102872.63
2023-01-28T16:04:29.190Z,102872.34
2023-01-28T16:07:01.644Z,102875.75
2023-01-28T16:09:34.497Z,102888.81
2023-01-28T16:12:11.613Z,102886.22
2023-01-28T16:14:46.915Z,102884.50
2023-01-28T16:17:20.578Z,102881.00
2023-01-28T16:19:53.634Z,102879.94
2023-01-28T16:22:29.892Z,102881.41
2023-01-28T16:25:00.149Z,102876.03
2023-01-28T16:27:34.164Z,102886.22
2023-01-28T16:30:04.251Z,102881.00
2023-01-28T16:32:39.078Z,102881.75
2023-01-28T16:35:18.068Z,102887.00
2023-01-28T16:37:49.166Z,102888.59
2023-01-28T16:40:21.756Z,102887.66
2023-01-28T16:42:57.170Z,102898.09
2023-01-28T16:45:28.025Z,102905.03
2023-01-28T16:47:58.603Z,102899.03
2023-01-28T16:50:28.408Z,102899.03
2023-01-28T16:52:59.180Z,102898.09
2023-01-28T16:55:29.608Z,102898.09
2023-01-28T16:58:02.164Z,102903.31
2023-01-28T17:00:33.432Z,102896.28
2023-01-28T17:03:03.273Z,102902.41
2023-01-28T17:05:33.646Z,102895.38
2023-01-28T17:08:03.466Z,102903.97
2023-01-28T17:10:33.257Z,102902.41
2023-01-28T17:13:06.168Z,102911.31
2023-01-28T17:15:37.711Z,102920.19
2023-01-28T17:18:08.140Z,102917.84
2023-01-28T17:20:40.532Z,102926.72
2023-01-28T17:23:10.968Z,102931.16
2023-01-28T17:25:41.856Z,102945.13
2023-01-28T17:28:14.320Z,102952.97
2023-01-28T17:30:44.983Z,102958.19
2023-01-28T17:33:14.944Z,102954.56
2023-01-28T17:35:49.141Z,102949.44
2023-01-28T17:38:19.295Z,102949.44
2023-01-28T17:40:49.144Z,102943.44
2023-01-28T17:43:21.583Z,102951.41
2023-01-28T17:45:51.559Z,102951.28
2023-01-28T17:48:21.424Z,102954.91
2023-01-28T17:50:51.253Z,102953.91
2023-01-28T17:53:21.119Z,102961.75
2023-01-28T17:55:50.947Z,102948.69
2023-01-28T17:58:23.426Z,102946.06
2023-01-28T18:00:53.268Z,102938.72
2023-01-28T18:03:23.095Z,102937.69
2023-01-28T18:06:01.318Z,102943.81
2023-01-28T18:08:31.119Z,102936.63
2023-01-28T18:11:02.876Z,102934.81
2023-01-28T18:13:37.804Z,102933.91
2023-01-28T18:16:09.960Z,102936.53
2023-01-28T18:18:39.757Z,102940.94
2023-01-28T18:21:10.831Z,102942.66
2023-01-28T18:23:40.608Z,102934.69
2023-01-28T18:26:10.441Z,102932.84
2023-01-28T18:28:42.836Z,102938.75
2023-01-28T18:31:12.711Z,102949.19
2023-01-28T18:33:42.645Z,102945.53
2023-01-28T18:36:13.309Z,102948.94
2023-01-28T18:38:43.114Z,102947.06
2023-01-28T18:41:13.019Z,102938.09
2023-01-28T18:43:46.006Z,102947.72
2023-01-28T18:46:18.706Z,102952.84
2023-01-28T18:48:48.537Z,102941.31
2023-01-28T18:51:29.714Z,102941.50
2023-01-28T18:54:02.142Z,102933.47
2023-01-28T18:56:33.091Z,102933.47
2023-01-28T18:59:07.517Z,102932.41
2023-01-28T19:01:38.051Z,102941.31
2023-01-28T19:04:07.991Z,102936.25
2023-01-28T19:06:38.124Z,102932.06
2023-01-28T19:09:09.280Z,102933.75
2023-01-28T19:11:40.819Z,102936.38
2023-01-28T19:14:16.722Z,102936.09
2023-01-28T19:16:47.561Z,102935.19
2023-01-28T19:19:17.433Z,102934.28
2023-01-28T19:21:47.259Z,102933.47
2023-01-28T19:24:17.217Z,102928.25
2023-01-28T19:26:47.860Z,102929.19
2023-01-28T19:29:20.514Z,102933.00
2023-01-28T19:31:50.819Z,102931.41
2023-01-28T19:34:21.662Z,102928.94
2023-01-28T19:36:51.696Z,102928.28
2023-01-28T19:39:22.047Z,102916.94
2023-01-28T19:41:52.042Z,102916.94
2023-01-28T19:44:24.663Z,102921.25
2023-01-28T19:46:54.648Z,102920.31
2023-01-28T19:49:24.735Z,102914.06
2023-01-28T19:51:54.601Z,102912.09
2023-01-28T19:54:24.470Z,102910.91
2023-01-28T19:56:54.480Z,102915.38
2023-01-28T19:59:27.139Z,102905.69
2023-01-28T20:01:57.147Z,102903.84
2023-01-28T20:04:27.021Z,102914.28
2023-01-28T20:06:57.022Z,102916.00
2023-01-28T20:09:27.230Z,102909.72
2023-01-28T20:11:57.035Z,102907.22
2023-01-28T20:14:29.811Z,102911.53
2023-01-28T20:16:59.681Z,102902.94
2023-01-28T20:19:29.511Z,102908.16
2023-01-28T20:21:59.403Z,102902.94
2023-01-28T20:24:29.393Z,102902.00
2023-01-28T20:26:59.230Z,102909.06
2023-01-28T20:29:31.855Z,102904.75
2023-01-28T20:32:16.169Z,102914.28
2023-01-28T20:34:48.400Z,102911.81
2023-01-28T20:37:18.605Z,102913.78
2023-01-28T20:39:48.839Z,102917.34
2023-01-28T20:42:18.846Z,102914.56
2023-01-28T20:44:51.803Z,102906.59
2023-01-28T20:47:21.611Z,102909.06
2023-01-28T20:49:51.479Z,102909.06
2023-01-28T20:52:21.322Z,102896.75
2023-01-28T20:54:51.256Z,102891.53
2023-01-28T20:57:21.079Z,102891.53
2023-01-28T20:59:53.659Z,102892.47
2023-01-28T21:02:23.483Z,102896.00
2023-01-28T21:04:53.425Z,102893.38
2023-01-28T21:07:23.245Z,102897.72
2023-01-28T21:09:53.049Z,102902.13
2023-01-28T21:12:23.082Z,102905.69
2023-01-28T21:14:55.482Z,102904.75
2023-01-28T21:17:25.423Z,102902.94
2023-01-28T21:19:55.419Z,102896.75
2023-01-28T21:22:25.213Z,102891.53
2023-01-28T21:24:55.884Z,102897.72
2023-01-28T21:27:25.722Z,102888.03
2023-01-28T21:29:58.136Z,102893.25
2023-01-28T21:32:27.965Z,102880.97
2023-01-28T21:34:58.088Z,102888.03
2023-01-28T21:37:28.805Z,102887.13
2023-01-28T21:39:58.608Z,102885.41
2023-01-28T21:42:29.166Z,102885.28
2023-01-28T21:45:01.755Z,102876.81
2023-01-28T21:47:31.625Z,102874.34
2023-01-28T21:50:01.655Z,102859.56
2023-01-28T21:52:31.557Z,102857.72
2023-01-28T21:55:01.982Z,102856.97
2023-01-28T21:57:31.818Z,102850.69
2023-01-28T22:00:04.780Z,102848.09
2023-01-28T22:02:34.665Z,102846.22
2023-01-28T22:05:04.662Z,102839.19
2023-01-28T22:07:34.623Z,102845.19
2023-01-28T22:10:04.706Z,102834.47
2023-01-28T22:12:34.555Z,102841.28
2023-01-28T22:15:07.746Z,102841.03
2023-01-28T22:17:37.591Z,102841.91
2023-01-28T22:20:08.594Z,102838.41
2023-01-28T22:22:38.415Z,102833.84
2023-01-28T22:25:08.615Z,102829.41
2023-01-28T22:27:38.520Z,102824.94
2023-01-28T22:30:12.769Z,102829.13
2023-01-28T22:32:43.151Z,102819.34
2023-01-28T22:35:12.947Z,102812.28
2023-01-28T22:37:42.747Z,102820.78
2023-01-28T22:40:14.360Z,102818.19
2023-01-28T22:42:44.287Z,102817.28
2023-01-28T22:45:16.881Z,102818.03
2023-01-28T22:47:46.917Z,102814.66
2023-01-28T22:50:17.078Z,102813.84
2023-01-28T22:52:47.050Z,102805.25
2023-01-28T22:55:17.242Z,102802.66
2023-01-28T22:57:47.435Z,102797.44
2023-01-28T23:00:20.720Z,102811.25
2023-01-28T23:02:50.560Z,102812.81
2023-01-28T23:05:21.096Z,102818.19
2023-01-28T23:07:51.001Z,102823.53
2023-01-28T23:10:21.442Z,102827.06
2023-01-28T23:12:56.296Z,102830.44
2023-01-28T23:15:46.940Z,102833.19
2023-01-28T23:18:33.432Z,102834.09
2023-01-28T23:21:15.643Z,102830.56
2023-01-28T23:23:57.871Z,102831.38
2023-01-28T23:26:27.799Z,102820.13
2023-01-28T23:28:57.883Z,102815.16
2023-01-28T23:31:30.496Z,102816.22
2023-01-28T23:34:00.385Z,102814.66
2023-01-28T23:36:33.657Z,102820.13
2023-01-28T23:39:03.555Z,102825.34
2023-01-28T23:41:33.710Z,102827.16
2023-01-28T23:44:03.783Z,102818.41
2023-01-28T23:46:39.736Z,102814.91
2023-01-28T23:49:10.246Z,102818.31
2023-01-28T23:51:40.144Z,102818.97
2023-01-28T23:54:09.951Z,102814.66
2023-01-28T23:56:39.955Z,102815.56
2023-01-28T23:59:09.763Z,102818.31
